Time;durP1;ratioP1;P1;durP2;ratioP2;P2;SDS_P1;SDS_P2;PMS_P1;PMS_P2;Temp;Humidity;BMP_temperature;BMP_pressure;BME280_temperature;BME280_humidity;BME280_pressure;Samples;Min_cycle;Max_cycle;Signal;HPM_P1;HPM_P2
2022/09/16 00:01:33;;;;;;;6.85;2.65;;;15.10;99.90;;;;;;5033640;28;20022;-68
2022/09/16 00:03:59;;;;;;;7.93;2.70;;;15.10;99.90;;;;;;5034016;28;20076;-68
2022/09/16 00:06:28;;;;;;;10.95;2.60;;;15.10;99.90;;;;;;5031532;28;20059;-67
2022/09/16 00:09:01;;;;;;;8.77;2.85;;;15.10;99.90;;;;;;5034241;28;20021;-67
2022/09/16 00:11:27;;;;;;;7.90;2.60;;;15.10;99.90;;;;;;5034043;28;20025;-67
2022/09/16 00:13:53;;;;;;;5.60;2.75;;;15.10;99.90;;;;;;5033776;28;20060;-68
2022/09/16 00:16:26;;;;;;;11.02;2.75;;;15.10;99.90;;;;;;5032423;28;20060;-67
2022/09/16 00:18:57;;;;;;;7.43;2.65;;;15.10;99.90;;;;;;5031172;28;20021;-67
2022/09/16 00:21:24;;;;;;;8.85;2.90;;;15.10;99.90;;;;;;5030759;28;20029;-67
2022/09/16 00:23:50;;;;;;;5.65;2.22;;;15.10;99.90;;;;;;5033271;28;20398;-67
2022/09/16 00:26:16;;;;;;;10.77;3.00;;;15.00;99.90;;;;;;5032183;28;20033;-68
2022/09/16 00:28:42;;;;;;;8.82;2.97;;;15.00;99.90;;;;;;5032380;28;20025;-67
2022/09/16 00:31:08;;;;;;;8.30;2.75;;;15.00;99.90;;;;;;5033595;28;20029;-67
2022/09/16 00:33:33;;;;;;;6.72;2.55;;;15.00;99.90;;;;;;5032796;28;20378;-68
2022/09/16 00:36:11;;;;;;;8.13;2.15;;;15.00;99.90;;;;;;5033562;28;20034;-67
2022/09/16 00:38:37;;;;;;;5.05;2.88;;;14.90;99.90;;;;;;5031987;28;20037;-67
2022/09/16 00:41:03;;;;;;;13.18;2.75;;;14.90;99.90;;;;;;5032427;28;20116;-68
2022/09/16 00:43:56;;;;;;;6.68;2.58;;;14.80;99.90;;;;;;5034014;28;20117;-67
2022/09/16 00:46:45;;;;;;;11.10;2.70;;;15.00;99.90;;;;;;5031292;28;20041;-67
2022/09/16 00:49:17;;;;;;;8.68;2.88;;;14.90;99.90;;;;;;5031413;28;20021;-67
2022/09/16 00:51:46;;;;;;;7.57;3.00;;;15.00;99.90;;;;;;5032191;28;20041;-68
2022/09/16 00:54:14;;;;;;;9.52;2.38;;;15.10;99.90;;;;;;5033735;28;20021;-68
2022/09/16 00:56:45;;;;;;;6.38;2.45;;;15.10;99.90;;;;;;5031157;28;20021;-67
2022/09/16 00:59:17;;;;;;;13.45;2.80;;;15.10;99.90;;;;;;5033633;28;20024;-67
2022/09/16 01:01:45;;;;;;;8.00;2.58;;;15.10;99.90;;;;;;5031278;28;20032;-67
2022/09/16 01:04:34;;;;;;;6.68;2.53;;;15.00;99.90;;;;;;5032371;28;20037;-67
2022/09/16 01:07:00;;;;;;;6.65;2.50;;;15.00;99.90;;;;;;5031193;28;20100;-68
2022/09/16 01:09:28;;;;;;;11.23;2.65;;;15.00;99.90;;;;;;5032812;28;20057;-67
2022/09/16 01:11:53;;;;;;;7.13;3.00;;;15.00;99.90;;;;;;5033162;28;20369;-67
2022/09/16 01:17:32;;;;;;;6.80;2.55;;;15.00;99.90;;;;;;5029920;28;20092;-67
2022/09/16 01:20:09;;;;;;;11.88;3.03;;;15.00;99.90;;;;;;5033019;28;20028;-68
2022/09/16 01:22:50;;;;;;;16.83;3.05;;;15.00;99.90;;;;;;5032645;28;20417;-67
2022/09/16 01:25:44;;;;;;;4.90;2.63;;;14.90;99.90;;;;;;5030916;28;20117;-67
2022/09/16 01:28:25;;;;;;;10.18;2.80;;;15.00;99.90;;;;;;5029817;28;20037;-67
2022/09/16 01:31:01;;;;;;;9.40;2.67;;;14.90;99.90;;;;;;5021911;28;20034;-68
2022/09/16 01:33:48;;;;;;;7.18;2.58;;;14.90;99.90;;;;;;5029022;28;20018;-68
2022/09/16 01:36:43;;;;;;;9.05;3.05;;;14.90;99.90;;;;;;5030407;28;20021;-68
2022/09/16 01:39:24;;;;;;;6.68;2.40;;;14.80;99.90;;;;;;5015574;28;20084;-67
2022/09/16 01:42:08;;;;;;;8.18;2.42;;;14.70;99.90;;;;;;5028072;28;20029;-67
2022/09/16 01:44:52;;;;;;;9.07;2.75;;;14.70;99.90;;;;;;5030347;28;20068;-67
2022/09/16 01:47:22;;;;;;;11.57;2.65;;;14.70;99.90;;;;;;5026409;28;20065;-67
2022/09/16 01:50:04;;;;;;;12.23;2.72;;;14.70;99.90;;;;;;5032127;28;20017;-67
2022/09/16 01:52:47;;;;;;;7.40;2.80;;;14.70;99.90;;;;;;5029755;28;20414;-67
2022/09/16 01:55:32;;;;;;;11.38;2.33;;;14.60;99.90;;;;;;5030088;28;20021;-67
2022/09/16 01:58:23;;;;;;;6.90;2.20;;;14.60;99.90;;;;;;5024743;28;20104;-67
2022/09/16 02:00:55;;;;;;;9.57;2.20;;;14.50;99.90;;;;;;5031898;28;20017;-67
2022/09/16 02:03:29;;;;;;;5.95;2.45;;;14.40;99.90;;;;;;5032570;28;20075;-67
2022/09/16 02:05:59;;;;;;;10.05;2.10;;;14.40;99.90;;;;;;5028574;28;20079;-67
2022/09/16 02:08:39;;;;;;;5.75;2.10;;;14.30;99.90;;;;;;5032230;28;20044;-68
2022/09/16 02:11:08;;;;;;;9.30;2.42;;;14.30;99.90;;;;;;5025536;28;20044;-69
2022/09/16 02:13:59;;;;;;;9.13;2.17;;;14.20;99.90;;;;;;5029881;28;20025;-68
2022/09/16 02:16:32;;;;;;;8.23;2.35;;;14.20;99.90;;;;;;5030927;28;20045;-69
2022/09/16 02:19:09;;;;;;;10.07;2.60;;;14.20;99.90;;;;;;5028834;28;20037;-68
2022/09/16 02:21:37;;;;;;;6.15;2.35;;;14.20;99.90;;;;;;5029841;28;20486;-67
2022/09/16 02:24:07;;;;;;;8.80;2.85;;;14.20;99.90;;;;;;5032140;28;20512;-69
2022/09/16 02:26:38;;;;;;;7.90;2.45;;;14.10;99.90;;;;;;5030050;28;20029;-68
2022/09/16 02:29:13;;;;;;;7.53;2.65;;;14.20;99.90;;;;;;5036317;28;20048;-69
2022/09/16 02:31:43;;;;;;;5.90;2.80;;;14.20;99.90;;;;;;5036562;28;20018;-68
2022/09/16 02:34:14;;;;;;;4.38;2.40;;;14.20;99.90;;;;;;5038624;28;20444;-69
2022/09/16 02:36:44;;;;;;;5.68;2.42;;;14.10;99.90;;;;;;5038556;28;20027;-68
2022/09/16 02:39:15;;;;;;;7.50;2.25;;;14.10;99.90;;;;;;5037880;28;20022;-69
2022/09/16 02:41:41;;;;;;;6.55;2.17;;;14.10;99.90;;;;;;5038243;28;20055;-69
2022/09/16 02:44:09;;;;;;;8.23;2.58;;;14.20;99.90;;;;;;5038268;28;20037;-68
2022/09/16 02:46:54;;;;;;;6.47;1.98;;;14.10;99.90;;;;;;5037766;28;20045;-69
2022/09/16 02:49:55;;;;;;;10.20;2.53;;;14.10;99.90;;;;;;5036523;28;20026;-69
2022/09/16 02:52:53;;;;;;;9.48;2.50;;;14.20;99.90;;;;;;5035264;28;20041;-71
2022/09/16 02:55:42;;;;;;;5.82;1.98;;;14.20;99.90;;;;;;5036385;28;20014;-71
2022/09/16 02:58:10;;;;;;;7.72;2.33;;;14.20;99.90;;;;;;5033521;28;20500;-68
2022/09/16 03:00:42;;;;;;;6.28;1.88;;;14.30;99.90;;;;;;5035535;28;20373;-67
2022/09/16 03:03:08;;;;;;;7.53;1.80;;;14.30;99.90;;;;;;5036365;28;20104;-67
2022/09/16 03:05:34;;;;;;;8.40;2.00;;;14.30;99.90;;;;;;5038047;28;20061;-69
2022/09/16 03:08:02;;;;;;;8.48;2.47;;;14.30;99.90;;;;;;5035860;28;20111;-69
2022/09/16 03:10:42;;;;;;;5.97;2.00;;;14.30;99.90;;;;;;5033374;28;20079;-66
2022/09/16 03:13:18;;;;;;;4.90;1.80;;;14.40;99.90;;;;;;5032735;28;20026;-67
2022/09/16 03:15:53;;;;;;;9.65;1.95;;;14.40;99.90;;;;;;5036712;28;20036;-68
2022/09/16 03:18:59;;;;;;;13.77;2.50;;;14.40;99.90;;;;;;5035245;28;20389;-68
2022/09/16 03:21:30;;;;;;;4.25;2.05;;;14.40;99.90;;;;;;5036191;28;20017;-69
2022/09/16 03:23:56;;;;;;;6.25;2.08;;;14.30;99.90;;;;;;5038192;28;20119;-68
2022/09/16 03:26:56;;;;;;;8.35;2.83;;;14.30;99.90;;;;;;5038259;28;20069;-68
2022/09/16 03:29:26;;;;;;;6.15;1.90;;;14.40;99.90;;;;;;5036085;28;20022;-68
2022/09/16 03:32:00;;;;;;;7.35;1.73;;;14.40;99.90;;;;;;5038065;28;20090;-68
2022/09/16 03:34:34;;;;;;;5.80;1.80;;;14.40;99.90;;;;;;5037786;28;20029;-68
2022/09/16 03:37:09;;;;;;;12.15;1.60;;;14.40;99.90;;;;;;5038570;28;20033;-67
2022/09/16 03:39:36;;;;;;;6.70;1.70;;;14.50;99.90;;;;;;5036528;28;20025;-68
2022/09/16 03:42:05;;;;;;;7.07;1.65;;;14.40;99.90;;;;;;5033180;28;20036;-68
2022/09/16 03:44:36;;;;;;;7.72;1.90;;;14.40;99.90;;;;;;5023861;28;20033;-68
2022/09/16 03:47:02;;;;;;;9.50;1.98;;;14.40;99.90;;;;;;5035197;28;20032;-68
2022/09/16 03:49:31;;;;;;;6.43;1.50;;;14.40;99.90;;;;;;5034925;28;20111;-68
2022/09/16 03:51:57;;;;;;;7.22;1.95;;;14.50;99.90;;;;;;5034015;28;20475;-68
2022/09/16 03:54:24;;;;;;;7.50;1.80;;;14.50;99.90;;;;;;5034648;28;20367;-67
2022/09/16 03:56:49;;;;;;;4.03;1.67;;;14.40;99.90;;;;;;5034760;28;20030;-68
2022/09/16 03:59:16;;;;;;;5.38;1.65;;;14.40;99.90;;;;;;5034691;28;20032;-67
2022/09/16 04:01:42;;;;;;;7.32;1.98;;;14.50;99.90;;;;;;5034878;28;20036;-68
2022/09/16 04:04:07;;;;;;;4.10;1.70;;;14.40;99.90;;;;;;5034201;28;20549;-68
2022/09/16 04:06:33;;;;;;;10.07;2.03;;;14.40;99.90;;;;;;5033385;28;20501;-67
2022/09/16 04:09:02;;;;;;;9.32;2.38;;;14.50;99.90;;;;;;5034944;28;20351;-67
2022/09/16 04:11:30;;;;;;;6.35;2.00;;;14.40;99.90;;;;;;5031802;28;20560;-67
2022/09/16 04:13:56;;;;;;;4.55;1.58;;;14.40;99.90;;;;;;5027792;28;20091;-67
2022/09/16 04:16:21;;;;;;;8.18;1.70;;;14.50;99.90;;;;;;5021278;28;20021;-67
2022/09/16 04:18:48;;;;;;;10.18;1.90;;;14.40;99.90;;;;;;5033689;28;20025;-66
2022/09/16 04:21:14;;;;;;;4.53;1.77;;;14.50;99.90;;;;;;5034326;28;20060;-68
2022/09/16 04:23:40;;;;;;;5.13;1.80;;;14.50;99.90;;;;;;5033053;28;20580;-67
2022/09/16 04:26:05;;;;;;;9.85;1.83;;;14.50;99.90;;;;;;5034178;28;20104;-68
2022/09/16 04:28:32;;;;;;;6.07;1.67;;;14.40;99.90;;;;;;5032540;28;20393;-68
2022/09/16 04:31:06;;;;;;;6.82;1.88;;;14.50;99.90;;;;;;5033290;28;20061;-69
2022/09/16 04:33:34;;;;;;;5.30;1.45;;;14.50;99.90;;;;;;5034559;28;20048;-69
2022/09/16 04:36:07;;;;;;;11.23;1.77;;;14.50;99.90;;;;;;5034385;28;20025;-69
2022/09/16 04:38:34;;;;;;;6.10;1.55;;;14.40;99.90;;;;;;5033929;28;20044;-69
2022/09/16 04:41:01;;;;;;;7.93;1.40;;;14.40;99.90;;;;;;5034158;28;20131;-70
2022/09/16 04:43:27;;;;;;;7.38;1.38;;;14.50;99.90;;;;;;5033994;28;20026;-69
2022/09/16 04:45:53;;;;;;;4.85;1.17;;;14.40;99.90;;;;;;5016772;28;20046;-70
2022/09/16 04:48:18;;;;;;;8.93;1.50;;;14.40;99.90;;;;;;5014132;28;20019;-68
2022/09/16 04:50:44;;;;;;;6.60;1.42;;;14.30;99.90;;;;;;5027376;28;20067;-69
2022/09/16 04:53:10;;;;;;;5.53;1.23;;;14.20;99.90;;;;;;5034291;28;20033;-68
2022/09/16 04:55:36;;;;;;;8.27;1.50;;;14.30;99.90;;;;;;5033413;28;20055;-69
2022/09/16 04:58:02;;;;;;;7.13;1.40;;;14.30;99.90;;;;;;5023706;28;20041;-69
2022/09/16 05:00:28;;;;;;;6.50;1.75;;;14.30;99.90;;;;;;5033058;28;20107;-69
2022/09/16 05:02:53;;;;;;;4.55;1.27;;;14.30;99.90;;;;;;5033835;28;20533;-68
2022/09/16 05:05:20;;;;;;;3.47;1.48;;;14.20;99.90;;;;;;5033850;28;20539;-68
2022/09/16 05:07:45;;;;;;;4.20;1.25;;;14.20;99.90;;;;;;5033486;28;20025;-69
2022/09/16 05:10:11;;;;;;;7.88;1.58;;;14.20;99.90;;;;;;5016494;28;20382;-68
2022/09/16 05:12:37;;;;;;;4.00;1.20;;;14.30;99.90;;;;;;5018870;28;20033;-68
2022/09/16 05:15:03;;;;;;;7.88;1.63;;;14.30;99.90;;;;;;5032809;28;20079;-69
2022/09/16 05:17:30;;;;;;;6.85;1.27;;;14.30;99.90;;;;;;5033061;28;20040;-68
2022/09/16 05:19:56;;;;;;;4.30;1.20;;;14.40;99.90;;;;;;5032937;28;20032;-69
2022/09/16 05:22:22;;;;;;;9.30;2.05;;;14.30;99.90;;;;;;5033348;28;20037;-68
2022/09/16 05:24:47;;;;;;;9.32;1.83;;;14.40;99.90;;;;;;5014657;28;20088;-68
2022/09/16 05:27:13;;;;;;;6.60;1.65;;;14.40;99.90;;;;;;5013917;28;20045;-69
2022/09/16 05:29:39;;;;;;;7.05;1.63;;;14.40;99.90;;;;;;5033213;28;20466;-69
2022/09/16 05:32:05;;;;;;;4.90;1.20;;;14.40;99.90;;;;;;5031467;28;20025;-68
2022/09/16 05:34:30;;;;;;;3.65;1.48;;;14.40;99.90;;;;;;5032647;28;20148;-68
2022/09/16 05:36:56;;;;;;;8.38;1.45;;;14.40;99.90;;;;;;5032488;28;20021;-69
2022/09/16 05:39:23;;;;;;;5.80;1.73;;;14.40;99.90;;;;;;5033012;28;20025;-69
2022/09/16 05:41:51;;;;;;;12.40;1.60;;;14.40;99.90;;;;;;5032751;28;20026;-68
2022/09/16 05:44:17;;;;;;;7.18;1.52;;;14.40;99.90;;;;;;5032762;28;20029;-69
2022/09/16 05:46:42;;;;;;;6.63;1.52;;;14.40;99.90;;;;;;5032985;28;20586;-68
2022/09/16 05:49:08;;;;;;;4.78;1.20;;;14.30;99.90;;;;;;5032633;28;20029;-68
2022/09/16 05:51:36;;;;;;;12.18;1.60;;;14.40;99.90;;;;;;5032377;28;20037;-68
2022/09/16 05:54:02;;;;;;;2.38;1.40;;;14.30;99.90;;;;;;5032723;28;20465;-69
2022/09/16 05:56:30;;;;;;;4.85;1.20;;;14.40;99.90;;;;;;5032447;28;20057;-69
2022/09/16 05:58:59;;;;;;;4.72;1.30;;;14.40;99.90;;;;;;5032536;28;20082;-69
2022/09/16 06:01:33;;;;;;;5.85;1.10;;;14.40;99.90;;;;;;5032281;28;20382;-69
2022/09/16 06:04:05;;;;;;;3.55;1.02;;;14.40;99.90;;;;;;5031833;28;20034;-68
2022/09/16 06:06:31;;;;;;;;;;;14.30;99.90;;;;;;5032709;28;20030;-68
2022/09/16 06:09:18;;;;;;;10.77;1.60;;;14.40;99.90;;;;;;5032400;28;20380;-68
2022/09/16 06:11:48;;;;;;;4.22;1.20;;;14.40;99.90;;;;;;5032010;28;20099;-68
2022/09/16 06:14:14;;;;;;;3.75;1.00;;;14.40;99.90;;;;;;5032392;28;20033;-68
2022/09/16 06:16:41;;;;;;;2.55;0.80;;;14.50;99.90;;;;;;5032646;28;20429;-69
2022/09/16 06:19:11;;;;;;;6.05;0.88;;;14.40;99.90;;;;;;5032484;28;20113;-68
2022/09/16 06:21:38;;;;;;;7.93;1.30;;;14.30;99.90;;;;;;5027239;28;20026;-68
2022/09/16 06:24:07;;;;;;;2.50;0.75;;;14.40;99.90;;;;;;5020876;28;20076;-68
2022/09/16 06:26:34;;;;;;;5.97;1.23;;;14.30;99.90;;;;;;5021569;28;20033;-68
2022/09/16 06:29:00;;;;;;;7.55;1.40;;;14.40;99.90;;;;;;5012104;28;20022;-68
2022/09/16 06:31:27;;;;;;;3.95;0.95;;;14.40;99.90;;;;;;5023622;28;20044;-67
2022/09/16 06:33:54;;;;;;;6.18;1.33;;;14.40;99.90;;;;;;5021466;28;20062;-67
2022/09/16 06:36:28;;;;;;;3.88;0.95;;;14.50;99.90;;;;;;5014554;28;20022;-67
2022/09/16 06:38:54;;;;;;;2.75;1.10;;;14.50;99.90;;;;;;5032133;28;20117;-68
2022/09/16 06:41:21;;;;;;;4.80;1.10;;;14.60;99.90;;;;;;5032409;28;20057;-68
2022/09/16 06:43:50;;;;;;;4.85;1.40;;;14.60;99.90;;;;;;5032453;28;20034;-68
2022/09/16 06:46:18;;;;;;;4.93;1.23;;;14.60;99.90;;;;;;5032463;28;20029;-69
2022/09/16 06:48:49;;;;;;;7.15;1.38;;;14.60;99.90;;;;;;5031546;28;20056;-69
2022/09/16 06:51:22;;;;;;;4.18;1.30;;;14.60;99.90;;;;;;5031668;28;20022;-68
2022/09/16 06:53:49;;;;;;;4.32;1.33;;;14.60;99.90;;;;;;5031964;28;20018;-68
2022/09/16 06:56:17;;;;;;;5.93;1.15;;;14.60;99.90;;;;;;5032291;28;20394;-68
2022/09/16 06:58:48;;;;;;;5.90;1.15;;;14.70;99.90;;;;;;5032404;28;20032;-67
2022/09/16 07:01:17;;;;;;;5.53;1.83;;;14.70;99.90;;;;;;5027054;28;20068;-68
2022/09/16 07:03:45;;;;;;;4.35;1.45;;;14.70;99.90;;;;;;5028996;28;20053;-67
2022/09/16 07:06:13;;;;;;;5.78;1.52;;;14.80;99.90;;;;;;5028760;28;20124;-68
2022/09/16 07:08:39;;;;;;;3.15;1.30;;;14.90;99.90;;;;;;5027500;28;20021;-68
2022/09/16 07:11:11;;;;;;;4.43;1.30;;;14.90;99.90;;;;;;5029056;28;20118;-69
2022/09/16 07:13:37;;;;;;;4.43;1.33;;;14.90;99.90;;;;;;5032705;28;20025;-68
2022/09/16 07:16:09;;;;;;;4.25;1.10;;;15.00;99.90;;;;;;5030756;28;20049;-68
2022/09/16 07:18:36;;;;;;;3.88;0.88;;;14.90;99.90;;;;;;5031565;28;20033;-69
2022/09/16 07:21:21;;;;;;;3.05;0.98;;;14.90;99.90;;;;;;5033931;28;20028;-68
2022/09/16 07:23:47;;;;;;;3.83;1.00;;;14.90;99.90;;;;;;5031771;28;20033;-68
2022/09/16 07:26:27;;;;;;;2.53;1.30;;;14.90;99.90;;;;;;5034446;28;20124;-69
2022/09/16 07:28:53;;;;;;;5.07;0.90;;;14.90;99.90;;;;;;5028549;28;20095;-69
2022/09/16 07:31:23;;;;;;;5.38;1.17;;;14.90;99.90;;;;;;5023818;28;20060;-69
2022/09/16 07:33:50;;;;;;;4.43;0.88;;;15.00;99.90;;;;;;5030607;28;20493;-69
2022/09/16 07:36:19;;;;;;;3.40;0.80;;;15.00;99.90;;;;;;5026661;28;20067;-69
2022/09/16 07:38:45;;;;;;;4.53;1.02;;;15.00;99.90;;;;;;5027654;28;20076;-69
2022/09/16 07:41:12;;;;;;;3.35;0.70;;;15.00;99.90;;;;;;5031194;28;20459;-69
2022/09/16 07:43:39;;;;;;;5.65;0.70;;;15.10;99.90;;;;;;5034041;28;20048;-69
2022/09/16 07:46:06;;;;;;;5.63;0.90;;;15.10;99.90;;;;;;5035846;28;20033;-69
2022/09/16 07:48:32;;;;;;;7.38;1.15;;;15.20;99.90;;;;;;5025438;28;20029;-68
2022/09/16 07:51:01;;;;;;;7.03;1.10;;;15.30;99.90;;;;;;5028718;28;20566;-69
2022/09/16 07:53:28;;;;;;;2.80;0.82;;;15.40;99.90;;;;;;5028412;28;20026;-69
2022/09/16 07:56:01;;;;;;;6.97;1.10;;;15.40;99.90;;;;;;5028462;28;20034;-69
2022/09/16 07:58:27;;;;;;;3.50;1.30;;;15.40;99.90;;;;;;5025195;28;20155;-67
2022/09/16 08:00:53;;;;;;;2.28;0.95;;;15.40;99.90;;;;;;5029001;28;20104;-68
2022/09/16 08:03:18;;;;;;;4.30;1.05;;;15.40;99.90;;;;;;5035102;28;20040;-67
2022/09/16 08:05:44;;;;;;;4.63;1.20;;;15.30;99.90;;;;;;5034679;28;20037;-68
2022/09/16 08:08:10;;;;;;;5.20;1.15;;;15.30;99.90;;;;;;5031585;28;20021;-67
2022/09/16 08:10:36;;;;;;;5.05;0.90;;;15.30;99.90;;;;;;5034370;28;20026;-69
2022/09/16 08:13:03;;;;;;;4.05;1.05;;;15.40;99.90;;;;;;5030218;28;20470;-67
2022/09/16 08:15:28;;;;;;;3.65;0.77;;;15.50;99.90;;;;;;5023953;28;20040;-67
2022/09/16 08:17:55;;;;;;;6.82;1.30;;;15.40;99.90;;;;;;5027509;28;20050;-68
2022/09/16 08:20:21;;;;;;;2.97;1.20;;;15.30;99.90;;;;;;5030208;28;20428;-67
2022/09/16 08:22:47;;;;;;;4.95;1.13;;;15.40;99.90;;;;;;5027704;28;20112;-69
2022/09/16 08:25:12;;;;;;;2.42;1.00;;;15.40;99.90;;;;;;5029064;28;20033;-68
2022/09/16 08:27:38;;;;;;;6.05;1.33;;;15.30;99.90;;;;;;5025465;28;20017;-68
2022/09/16 08:30:04;;;;;;;4.60;1.10;;;15.30;99.90;;;;;;5027054;28;20033;-68
2022/09/16 08:32:30;;;;;;;4.90;1.33;;;15.40;99.90;;;;;;5029913;28;20430;-68
2022/09/16 08:34:56;;;;;;;5.13;1.52;;;15.50;99.90;;;;;;5033287;28;20022;-68
2022/09/16 08:37:22;;;;;;;2.92;1.17;;;15.50;99.90;;;;;;5032396;28;20040;-68
2022/09/16 08:39:47;;;;;;;3.45;0.88;;;15.60;99.90;;;;;;5033228;28;20017;-69
2022/09/16 08:42:22;;;;;;;10.80;1.77;;;15.70;99.90;;;;;;5029022;28;20443;-68
2022/09/16 08:45:11;;;;;;;3.53;1.00;;;15.80;99.90;;;;;;5025615;28;20048;-67
2022/09/16 08:48:16;;;;;;;3.83;0.88;;;15.80;99.90;;;;;;5022481;28;20052;-68
2022/09/16 08:50:45;;;;;;;6.05;1.15;;;15.70;99.90;;;;;;5031887;28;20033;-68
2022/09/16 08:53:18;;;;;;;4.15;0.88;;;15.70;99.90;;;;;;5025535;28;20109;-68
2022/09/16 08:55:47;;;;;;;4.18;1.02;;;15.90;99.90;;;;;;5014121;28;20048;-68
2022/09/16 08:58:17;;;;;;;6.05;1.00;;;16.00;99.90;;;;;;5013997;28;20390;-68
2022/09/16 09:00:46;;;;;;;6.63;1.10;;;16.20;99.90;;;;;;5015588;28;20030;-68
2022/09/16 09:03:36;;;;;;;6.82;1.05;;;16.30;99.90;;;;;;5032503;28;20437;-69
2022/09/16 09:06:17;;;;;;;4.10;0.77;;;16.40;99.90;;;;;;5033109;28;20482;-69
2022/09/16 09:09:04;;;;;;;6.38;1.15;;;16.40;99.90;;;;;;5032311;28;20461;-68
2022/09/16 09:11:42;;;;;;;6.15;0.80;;;16.30;99.90;;;;;;5033232;28;20522;-69
2022/09/16 09:14:37;;;;;;;8.65;0.98;;;16.50;99.90;;;;;;5032996;28;20041;-68
2022/09/16 09:17:17;;;;;;;5.40;1.13;;;16.50;99.90;;;;;;5033138;28;20574;-68
2022/09/16 09:19:49;;;;;;;3.92;1.00;;;16.60;99.90;;;;;;5031689;28;20152;-68
2022/09/16 09:22:24;;;;;;;3.40;1.17;;;16.60;99.90;;;;;;5032130;28;20048;-69
2022/09/16 09:25:15;;;;;;;5.65;1.00;;;16.60;99.90;;;;;;5033374;28;20134;-69
2022/09/16 09:27:55;;;;;;;2.88;0.95;;;16.70;99.90;;;;;;5032411;28;20033;-68
2022/09/16 09:30:28;;;;;;;5.72;0.93;;;16.80;99.90;;;;;;5032819;28;20029;-69
2022/09/16 09:33:12;;;;;;;3.75;0.82;;;17.00;99.90;;;;;;5023165;28;20116;-68
2022/09/16 09:35:52;;;;;;;2.90;0.60;;;17.20;99.90;;;;;;5031409;28;20021;-69
2022/09/16 09:38:31;;;;;;;6.10;1.27;;;17.40;99.90;;;;;;5032429;28;20489;-69
2022/09/16 09:41:19;;;;;;;4.55;0.80;;;17.40;99.90;;;;;;5033097;28;20053;-70
2022/09/16 09:43:57;;;;;;;2.58;1.08;;;17.30;99.90;;;;;;5032572;28;20056;-69
2022/09/16 09:46:43;;;;;;;3.80;1.20;;;17.30;99.90;;;;;;5032792;28;20057;-69
2022/09/16 09:49:25;;;;;;;4.07;1.20;;;17.20;99.90;;;;;;5032998;28;20022;-69
2022/09/16 09:51:59;;;;;;;6.43;1.50;;;17.50;99.90;;;;;;5031364;28;20033;-70
2022/09/16 09:54:30;;;;;;;5.55;0.90;;;17.60;99.90;;;;;;5032592;28;20071;-69
2022/09/16 09:57:10;;;;;;;3.80;0.80;;;17.60;99.90;;;;;;5032928;28;20021;-70
2022/09/16 09:59:51;;;;;;;2.67;0.90;;;17.70;99.90;;;;;;5013085;28;20053;-70
2022/09/16 10:02:20;;;;;;;3.08;1.00;;;17.50;99.90;;;;;;5025053;28;20028;-70
2022/09/16 10:04:46;;;;;;;5.30;1.00;;;17.50;99.90;;;;;;5030932;28;20034;-70
2022/09/16 10:07:16;;;;;;;3.35;1.20;;;17.40;99.90;;;;;;5031861;28;20100;-70
2022/09/16 10:09:54;;;;;;;3.53;0.98;;;17.40;99.90;;;;;;5032709;28;20060;-69
2022/09/16 10:12:34;;;;;;;3.72;0.88;;;17.40;99.90;;;;;;5032291;28;20095;-70
2022/09/16 10:15:00;;;;;;;5.82;1.33;;;17.50;99.90;;;;;;5030783;28;20025;-70
2022/09/16 10:17:29;;;;;;;4.20;0.80;;;17.60;99.90;;;;;;5032818;28;20030;-69
2022/09/16 10:20:03;;;;;;;4.35;0.88;;;17.80;99.90;;;;;;5031973;28;20387;-69
2022/09/16 10:22:31;;;;;;;3.85;1.00;;;18.10;99.90;;;;;;5031866;28;20025;-70
2022/09/16 10:25:01;;;;;;;3.67;0.82;;;18.10;99.90;;;;;;5031696;28;20069;-70
2022/09/16 10:27:32;;;;;;;3.45;1.30;;;18.30;99.90;;;;;;5031132;28;20026;-69
2022/09/16 10:30:05;;;;;;;5.28;1.48;;;18.40;99.90;;;;;;5032215;28;20022;-69
2022/09/16 10:32:38;;;;;;;5.68;1.48;;;18.50;99.90;;;;;;5032481;28;20425;-69
2022/09/16 10:35:07;;;;;;;7.18;1.50;;;18.60;99.90;;;;;;5031120;28;20040;-70
2022/09/16 10:37:33;;;;;;;2.47;1.40;;;18.90;99.90;;;;;;4995393;28;20021;-69
2022/09/16 10:40:00;;;;;;;3.45;1.25;;;19.00;99.90;;;;;;5026138;28;20474;-70
2022/09/16 10:42:27;;;;;;;2.80;1.27;;;19.10;99.90;;;;;;5039118;28;20056;-70
2022/09/16 10:45:28;;;;;;;2.22;1.05;;;19.00;99.90;;;;;;5047858;28;20091;-70
2022/09/16 10:48:06;;;;;;;11.05;1.00;;;18.80;99.90;;;;;;5040302;28;20108;-70
2022/09/16 10:50:32;;;;;;;7.38;1.10;;;18.80;99.90;;;;;;5026024;28;20072;-70
2022/09/16 10:52:58;;;;;;;4.05;0.80;;;18.70;99.90;;;;;;5047636;28;20064;-70
2022/09/16 10:55:29;;;;;;;2.33;0.80;;;18.60;99.90;;;;;;5039003;28;20091;-70
2022/09/16 10:58:26;;;;;;;9.63;1.10;;;18.30;99.90;;;;;;5032363;28;20128;-67
2022/09/16 11:01:25;;;;;;;5.32;0.90;;;17.60;99.90;;;;;;5037618;28;20042;-69
2022/09/16 11:04:12;;;;;;;2.28;0.63;;;17.10;99.90;;;;;;5022202;28;20547;-68
2022/09/16 11:07:01;;;;;;;2.88;0.50;;;16.90;99.90;;;;;;5035294;28;20061;-65
2022/09/16 11:09:36;;;;;;;2.38;0.50;;;16.80;99.90;;;;;;5027618;28;20021;-65
2022/09/16 11:12:35;;;;;;;3.05;0.50;;;16.60;99.90;;;;;;5044251;28;20117;-65
2022/09/16 11:15:28;;;;;;;5.25;0.75;;;16.40;99.90;;;;;;5036468;28;20037;-68
2022/09/16 11:18:19;;;;;;;4.45;0.80;;;16.20;99.90;;;;;;5030540;28;20380;-67
2022/09/16 11:21:07;;;;;;;5.45;0.60;;;16.20;99.90;;;;;;5032539;28;20781;-67
2022/09/16 11:23:45;;;;;;;3.40;0.43;;;16.00;99.90;;;;;;5026642;28;20527;-67
2022/09/16 11:26:17;;;;;;;6.82;0.60;;;16.00;99.90;;;;;;5045830;28;20087;-67
2022/09/16 11:28:55;;;;;;;2.90;0.70;;;15.90;99.90;;;;;;5049796;28;20052;-67
2022/09/16 11:31:34;;;;;;;4.43;0.82;;;15.90;99.90;;;;;;5019494;28;20040;-72
2022/09/16 11:34:15;;;;;;;6.57;1.17;;;15.90;99.90;;;;;;5032217;28;20022;-68
2022/09/16 11:36:50;;;;;;;7.80;1.27;;;16.10;99.90;;;;;;5035681;28;20025;-69
2022/09/16 11:39:43;;;;;;;5.30;0.90;;;16.20;99.90;;;;;;5037729;28;20053;-67
2022/09/16 11:42:34;;;;;;;3.47;0.70;;;16.40;99.90;;;;;;5043748;28;20041;-67
2022/09/16 11:45:15;;;;;;;6.90;1.02;;;16.40;99.90;;;;;;5051199;28;20037;-68
2022/09/16 11:47:43;;;;;;;5.35;0.82;;;16.50;99.90;;;;;;5035996;28;20148;-68
2022/09/16 11:50:29;;;;;;;4.57;1.08;;;16.80;99.90;;;;;;5037258;28;20033;-69
2022/09/16 11:53:04;;;;;;;3.22;0.88;;;17.00;99.90;;;;;;5050769;28;20032;-68
2022/09/16 11:55:35;;;;;;;5.35;1.30;;;17.30;99.90;;;;;;5039957;28;20078;-69
2022/09/16 11:58:20;;;;;;;5.43;1.15;;;17.50;99.90;;;;;;5043606;28;20156;-69
2022/09/16 12:00:47;;;;;;;3.53;0.65;;;17.50;99.90;;;;;;5049391;28;20544;-69
2022/09/16 12:03:59;;;;;;;2.85;0.90;;;17.60;99.90;;;;;;5037693;28;20017;-69
2022/09/16 12:06:29;;;;;;;3.33;0.90;;;17.80;99.90;;;;;;5028492;28;20033;-68
2022/09/16 12:09:10;;;;;;;3.08;0.73;;;18.00;99.90;;;;;;5050644;28;20519;-68
2022/09/16 12:11:47;;;;;;;3.17;0.90;;;18.30;99.90;;;;;;5038098;28;20070;-68
2022/09/16 12:14:21;;;;;;;1.98;0.70;;;18.40;99.90;;;;;;5043464;28;20120;-69
2022/09/16 12:16:53;;;;;;;5.95;0.82;;;18.60;99.90;;;;;;5041503;28;20029;-69
2022/09/16 12:19:33;;;;;;;3.60;0.80;;;18.40;99.90;;;;;;5032925;28;20052;-69
2022/09/16 12:22:09;;;;;;;5.00;0.70;;;18.30;99.90;;;;;;5043228;28;20861;-69
2022/09/16 12:24:58;;;;;;;5.45;1.00;;;18.00;99.90;;;;;;5039038;28;20065;-69
2022/09/16 12:27:45;;;;;;;2.03;0.80;;;17.90;99.90;;;;;;5022018;28;20025;-69
2022/09/16 12:30:17;;;;;;;2.38;0.52;;;17.70;99.90;;;;;;5043068;28;20021;-68
2022/09/16 12:33:01;;;;;;;5.32;0.90;;;17.70;99.90;;;;;;5034602;28;20025;-69
2022/09/16 12:35:39;;;;;;;2.88;0.52;;;17.70;99.90;;;;;;5036057;28;20074;-69
2022/09/16 12:38:21;;;;;;;3.22;1.02;;;17.80;99.90;;;;;;5042646;28;20032;-69
2022/09/16 12:41:09;;;;;;;4.93;1.15;;;17.90;99.90;;;;;;5045430;28;20539;-68
2022/09/16 12:44:05;;;;;;;2.67;0.47;;;18.10;99.90;;;;;;5018324;28;20025;-69
2022/09/16 12:46:42;;;;;;;2.72;0.57;;;18.10;99.90;;;;;;5028256;28;20482;-69
2022/09/16 12:49:27;;;;;;;4.10;0.82;;;18.00;99.90;;;;;;5034410;28;20480;-70
2022/09/16 12:52:17;;;;;;;1.70;0.40;;;18.10;99.90;;;;;;5046643;28;20021;-70
2022/09/16 12:55:22;;;;;;;2.45;0.50;;;18.00;99.90;;;;;;5036912;28;20112;-70
2022/09/16 12:58:08;;;;;;;1.95;0.50;;;18.00;99.90;;;;;;5027612;28;20029;-70
2022/09/16 13:01:03;;;;;;;0.93;0.40;;;18.00;99.90;;;;;;5047485;28;20060;-70
2022/09/16 13:03:32;;;;;;;3.08;0.50;;;18.10;99.90;;;;;;5034023;28;20025;-70
2022/09/16 13:06:06;;;;;;;3.65;0.77;;;18.10;99.90;;;;;;5041545;28;20037;-69
2022/09/16 13:08:33;;;;;;;3.97;0.70;;;18.30;99.90;;;;;;5046262;28;20017;-70
2022/09/16 13:11:14;;;;;;;2.58;0.55;;;18.40;99.90;;;;;;5035684;28;20117;-70
2022/09/16 13:13:44;;;;;;;1.95;0.55;;;18.30;99.90;;;;;;5046315;28;20028;-71
2022/09/16 13:16:10;;;;;;;4.07;0.70;;;18.20;99.90;;;;;;5040450;28;20029;-70
2022/09/16 13:18:49;;;;;;;1.98;0.50;;;18.40;99.90;;;;;;5047403;28;20108;-71
2022/09/16 13:21:33;;;;;;;1.13;0.55;;;18.30;99.90;;;;;;5036204;28;20071;-70